sensor_id;sensor_type;location;lat;lon;timestamp;pressure;altitude;pressure_sealevel;temperature
7389;BMP180;3735;50.136;11.062;2022-07-03T00:01:47;98463.00;;;15.50
7389;BMP180;3735;50.136;11.062;2022-07-03T00:04:13;98458.00;;;15.40
7389;BMP180;3735;50.136;11.062;2022-07-03T00:06:39;98455.00;;;15.40
7389;BMP180;3735;50.136;11.062;2022-07-03T00:09:05;98452.00;;;15.20
7389;BMP180;3735;50.136;11.062;2022-07-03T00:11:32;98455.00;;;15.30
7389;BMP180;3735;50.136;11.062;2022-07-03T00:13:59;98461.00;;;15.20
7389;BMP180;3735;50.136;11.062;2022-07-03T00:16:25;98457.00;;;15.20
7389;BMP180;3735;50.136;11.062;2022-07-03T00:18:51;98457.00;;;15.20
7389;BMP180;3735;50.136;11.062;2022-07-03T00:21:25;98459.00;;;15.20
7389;BMP180;3735;50.136;11.062;2022-07-03T00:24:16;98458.00;;;15.20
7389;BMP180;3735;50.136;11.062;2022-07-03T00:26:44;98461.00;;;15.20
7389;BMP180;3735;50.136;11.062;2022-07-03T00:29:14;98458.00;;;15.20
7389;BMP180;3735;50.136;11.062;2022-07-03T00:31:42;98456.00;;;15.20
7389;BMP180;3735;50.136;11.062;2022-07-03T00:34:14;98454.00;;;15.20
7389;BMP180;3735;50.136;11.062;2022-07-03T00:36:42;98447.00;;;15.20
7389;BMP180;3735;50.136;11.062;2022-07-03T00:39:08;98444.00;;;15.00
7389;BMP180;3735;50.136;11.062;2022-07-03T00:41:35;98450.00;;;14.90
7389;BMP180;3735;50.136;11.062;2022-07-03T00:44:02;98449.00;;;14.80
7389;BMP180;3735;50.136;11.062;2022-07-03T00:46:29;98460.00;;;14.60
7389;BMP180;3735;50.136;11.062;2022-07-03T00:48:57;98453.00;;;14.60
7389;BMP180;3735;50.136;11.062;2022-07-03T00:51:28;98450.00;;;14.60
7389;BMP180;3735;50.136;11.062;2022-07-03T00:53:58;98443.00;;;14.50
7389;BMP180;3735;50.136;11.062;2022-07-03T00:56:30;98459.00;;;14.40
7389;BMP180;3735;50.136;11.062;2022-07-03T00:58:59;98453.00;;;14.30
7389;BMP180;3735;50.136;11.062;2022-07-03T01:01:32;98458.00;;;14.30
7389;BMP180;3735;50.136;11.062;2022-07-03T01:07:06;98445.00;;;14.10
7389;BMP180;3735;50.136;11.062;2022-07-03T01:12:56;98441.00;;;14.10
7389;BMP180;3735;50.136;11.062;2022-07-03T01:18:39;98438.00;;;14.00
7389;BMP180;3735;50.136;11.062;2022-07-03T01:21:31;98444.00;;;14.00
7389;BMP180;3735;50.136;11.062;2022-07-03T01:26:55;98428.00;;;14.00
7389;BMP180;3735;50.136;11.062;2022-07-03T01:29:31;98431.00;;;14.00
7389;BMP180;3735;50.136;11.062;2022-07-03T01:32:01;98429.00;;;14.00
7389;BMP180;3735;50.136;11.062;2022-07-03T01:34:34;98427.00;;;14.00
7389;BMP180;3735;50.136;11.062;2022-07-03T01:37:04;98418.00;;;13.90
7389;BMP180;3735;50.136;11.062;2022-07-03T01:39:35;98426.00;;;14.00
7389;BMP180;3735;50.136;11.062;2022-07-03T01:42:02;98419.00;;;14.10
7389;BMP180;3735;50.136;11.062;2022-07-03T01:44:30;98419.00;;;14.20
7389;BMP180;3735;50.136;11.062;2022-07-03T01:46:57;98421.00;;;14.20
7389;BMP180;3735;50.136;11.062;2022-07-03T01:49:27;98427.00;;;14.10
7389;BMP180;3735;50.136;11.062;2022-07-03T01:51:55;98422.00;;;14.10
7389;BMP180;3735;50.136;11.062;2022-07-03T01:54:25;98424.00;;;14.00
7389;BMP180;3735;50.136;11.062;2022-07-03T01:56:53;98424.00;;;13.80
7389;BMP180;3735;50.136;11.062;2022-07-03T01:59:19;98430.00;;;13.80
7389;BMP180;3735;50.136;11.062;2022-07-03T02:01:58;98426.00;;;13.80
7389;BMP180;3735;50.136;11.062;2022-07-03T02:04:34;98422.00;;;13.70
7389;BMP180;3735;50.136;11.062;2022-07-03T02:07:21;98424.00;;;13.60
7389;BMP180;3735;50.136;11.062;2022-07-03T02:10:08;98424.00;;;13.50
7389;BMP180;3735;50.136;11.062;2022-07-03T02:13:00;98415.00;;;13.50
7389;BMP180;3735;50.136;11.062;2022-07-03T02:15:33;98427.00;;;13.50
7389;BMP180;3735;50.136;11.062;2022-07-03T02:18:20;98429.00;;;13.50
7389;BMP180;3735;50.136;11.062;2022-07-03T02:21:17;98424.00;;;13.40
7389;BMP180;3735;50.136;11.062;2022-07-03T02:26:37;98421.00;;;13.30
7389;BMP180;3735;50.136;11.062;2022-07-03T02:29:07;98422.00;;;13.30
7389;BMP180;3735;50.136;11.062;2022-07-03T02:31:44;98414.00;;;13.30
7389;BMP180;3735;50.136;11.062;2022-07-03T02:34:23;98420.00;;;13.30
7389;BMP180;3735;50.136;11.062;2022-07-03T02:36:56;98414.00;;;13.30
7389;BMP180;3735;50.136;11.062;2022-07-03T02:39:36;98412.00;;;13.30
7389;BMP180;3735;50.136;11.062;2022-07-03T02:42:12;98410.00;;;13.30
7389;BMP180;3735;50.136;11.062;2022-07-03T02:44:46;98411.00;;;13.30
7389;BMP180;3735;50.136;11.062;2022-07-03T02:47:48;98412.00;;;13.30
7389;BMP180;3735;50.136;11.062;2022-07-03T02:50:21;98405.00;;;13.30
7389;BMP180;3735;50.136;11.062;2022-07-03T02:53:20;98413.00;;;13.30
7389;BMP180;3735;50.136;11.062;2022-07-03T02:55:47;98403.00;;;13.40
7389;BMP180;3735;50.136;11.062;2022-07-03T02:58:53;98405.00;;;13.50
7389;BMP180;3735;50.136;11.062;2022-07-03T03:04:21;98409.00;;;13.60
7389;BMP180;3735;50.136;11.062;2022-07-03T03:07:16;98414.00;;;13.60
7389;BMP180;3735;50.136;11.062;2022-07-03T03:09:44;98409.00;;;13.70
7389;BMP180;3735;50.136;11.062;2022-07-03T03:12:12;98413.00;;;13.70
7389;BMP180;3735;50.136;11.062;2022-07-03T03:14:54;98409.00;;;13.70
7389;BMP180;3735;50.136;11.062;2022-07-03T03:17:32;98406.00;;;13.60
7389;BMP180;3735;50.136;11.062;2022-07-03T03:20:02;98402.00;;;13.60
7389;BMP180;3735;50.136;11.062;2022-07-03T03:22:40;98402.00;;;13.50
7389;BMP180;3735;50.136;11.062;2022-07-03T03:25:11;98388.00;;;13.50
7389;BMP180;3735;50.136;11.062;2022-07-03T03:27:37;98399.00;;;13.50
7389;BMP180;3735;50.136;11.062;2022-07-03T03:30:04;98402.00;;;13.50
7389;BMP180;3735;50.136;11.062;2022-07-03T03:32:35;98404.00;;;13.50
7389;BMP180;3735;50.136;11.062;2022-07-03T03:35:02;98404.00;;;13.60
7389;BMP180;3735;50.136;11.062;2022-07-03T03:37:28;98405.00;;;13.60
7389;BMP180;3735;50.136;11.062;2022-07-03T03:39:57;98410.00;;;13.60
7389;BMP180;3735;50.136;11.062;2022-07-03T03:42:23;98409.00;;;13.70
7389;BMP180;3735;50.136;11.062;2022-07-03T03:44:48;98414.00;;;13.70
7389;BMP180;3735;50.136;11.062;2022-07-03T03:47:14;98408.00;;;13.70
7389;BMP180;3735;50.136;11.062;2022-07-03T03:49:40;98400.00;;;13.70
7389;BMP180;3735;50.136;11.062;2022-07-03T03:52:06;98406.00;;;13.60
7389;BMP180;3735;50.136;11.062;2022-07-03T03:54:32;98396.00;;;13.50
7389;BMP180;3735;50.136;11.062;2022-07-03T03:57:24;98397.00;;;13.60
7389;BMP180;3735;50.136;11.062;2022-07-03T03:59:51;98399.00;;;13.50
7389;BMP180;3735;50.136;11.062;2022-07-03T04:02:18;98404.00;;;13.50
7389;BMP180;3735;50.136;11.062;2022-07-03T04:04:44;98391.00;;;13.60
7389;BMP180;3735;50.136;11.062;2022-07-03T04:07:10;98401.00;;;13.60
7389;BMP180;3735;50.136;11.062;2022-07-03T04:09:36;98396.00;;;13.60
7389;BMP180;3735;50.136;11.062;2022-07-03T04:12:02;98392.00;;;13.60
7389;BMP180;3735;50.136;11.062;2022-07-03T04:14:28;98402.00;;;13.70
7389;BMP180;3735;50.136;11.062;2022-07-03T04:16:54;98402.00;;;13.70
7389;BMP180;3735;50.136;11.062;2022-07-03T04:19:21;98406.00;;;13.70
7389;BMP180;3735;50.136;11.062;2022-07-03T04:21:46;98410.00;;;13.80
7389;BMP180;3735;50.136;11.062;2022-07-03T04:24:12;98407.00;;;13.90
7389;BMP180;3735;50.136;11.062;2022-07-03T04:26:38;98413.00;;;14.00
7389;BMP180;3735;50.136;11.062;2022-07-03T04:29:04;98413.00;;;14.10
7389;BMP180;3735;50.136;11.062;2022-07-03T04:31:29;98402.00;;;14.30
7389;BMP180;3735;50.136;11.062;2022-07-03T04:33:55;98410.00;;;14.40
7389;BMP180;3735;50.136;11.062;2022-07-03T04:36:21;98404.00;;;14.50
7389;BMP180;3735;50.136;11.062;2022-07-03T04:38:47;98413.00;;;14.60
7389;BMP180;3735;50.136;11.062;2022-07-03T04:41:12;98410.00;;;14.70
7389;BMP180;3735;50.136;11.062;2022-07-03T04:43:38;98402.00;;;14.70
7389;BMP180;3735;50.136;11.062;2022-07-03T04:46:04;98407.00;;;14.90
7389;BMP180;3735;50.136;11.062;2022-07-03T04:48:30;98397.00;;;15.00
7389;BMP180;3735;50.136;11.062;2022-07-03T04:50:57;98394.00;;;15.20
7389;BMP180;3735;50.136;11.062;2022-07-03T04:53:23;98393.00;;;15.30
7389;BMP180;3735;50.136;11.062;2022-07-03T04:55:49;98381.00;;;15.40
7389;BMP180;3735;50.136;11.062;2022-07-03T04:58:15;98395.00;;;15.50
7389;BMP180;3735;50.136;11.062;2022-07-03T05:00:43;98389.00;;;15.60
7389;BMP180;3735;50.136;11.062;2022-07-03T05:03:10;98390.00;;;15.70
7389;BMP180;3735;50.136;11.062;2022-07-03T05:05:35;98388.00;;;15.90
7389;BMP180;3735;50.136;11.062;2022-07-03T05:08:01;98390.00;;;16.00
7389;BMP180;3735;50.136;11.062;2022-07-03T05:10:27;98386.00;;;16.10
7389;BMP180;3735;50.136;11.062;2022-07-03T05:12:54;98399.00;;;16.20
7389;BMP180;3735;50.136;11.062;2022-07-03T05:15:19;98398.00;;;16.30
7389;BMP180;3735;50.136;11.062;2022-07-03T05:17:45;98393.00;;;16.50
7389;BMP180;3735;50.136;11.062;2022-07-03T05:20:12;98375.00;;;16.50
7389;BMP180;3735;50.136;11.062;2022-07-03T05:23:02;98396.00;;;16.80
7389;BMP180;3735;50.136;11.062;2022-07-03T05:25:31;98402.00;;;17.00
7389;BMP180;3735;50.136;11.062;2022-07-03T05:27:58;98399.00;;;17.10
7389;BMP180;3735;50.136;11.062;2022-07-03T05:30:25;98401.00;;;17.40
7389;BMP180;3735;50.136;11.062;2022-07-03T05:32:52;98409.00;;;18.00
7389;BMP180;3735;50.136;11.062;2022-07-03T05:35:18;98415.00;;;19.50
7389;BMP180;3735;50.136;11.062;2022-07-03T05:37:45;98399.00;;;21.40
7389;BMP180;3735;50.136;11.062;2022-07-03T05:40:11;98397.00;;;22.20
7389;BMP180;3735;50.136;11.062;2022-07-03T05:42:37;98398.00;;;22.00
7389;BMP180;3735;50.136;11.062;2022-07-03T05:45:03;98394.00;;;23.00
7389;BMP180;3735;50.136;11.062;2022-07-03T05:47:29;98395.00;;;23.90
7389;BMP180;3735;50.136;11.062;2022-07-03T05:49:55;98387.00;;;24.80
7389;BMP180;3735;50.136;11.062;2022-07-03T05:52:21;98389.00;;;25.70
7389;BMP180;3735;50.136;11.062;2022-07-03T05:54:47;98394.00;;;26.60
7389;BMP180;3735;50.136;11.062;2022-07-03T05:57:12;98404.00;;;27.50
7389;BMP180;3735;50.136;11.062;2022-07-03T05:59:38;98401.00;;;28.00
7389;BMP180;3735;50.136;11.062;2022-07-03T06:02:04;98400.00;;;27.30
7389;BMP180;3735;50.136;11.062;2022-07-03T06:04:30;98397.00;;;27.00
7389;BMP180;3735;50.136;11.062;2022-07-03T06:06:56;98404.00;;;28.30
7389;BMP180;3735;50.136;11.062;2022-07-03T06:09:23;98402.00;;;28.90
7389;BMP180;3735;50.136;11.062;2022-07-03T06:11:49;98409.00;;;29.70
7389;BMP180;3735;50.136;11.062;2022-07-03T06:14:15;98403.00;;;30.60
7389;BMP180;3735;50.136;11.062;2022-07-03T06:16:41;98405.00;;;31.20
7389;BMP180;3735;50.136;11.062;2022-07-03T06:19:06;98412.00;;;31.70
7389;BMP180;3735;50.136;11.062;2022-07-03T06:21:33;98408.00;;;31.50
7389;BMP180;3735;50.136;11.062;2022-07-03T06:23:59;98411.00;;;31.60
7389;BMP180;3735;50.136;11.062;2022-07-03T06:26:26;98412.00;;;31.90
7389;BMP180;3735;50.136;11.062;2022-07-03T06:28:53;98412.00;;;32.40
7389;BMP180;3735;50.136;11.062;2022-07-03T06:31:19;98415.00;;;31.70
7389;BMP180;3735;50.136;11.062;2022-07-03T06:33:44;98412.00;;;31.70
7389;BMP180;3735;50.136;11.062;2022-07-03T06:36:10;98412.00;;;31.90
7389;BMP180;3735;50.136;11.062;2022-07-03T06:38:36;98415.00;;;32.20
7389;BMP180;3735;50.136;11.062;2022-07-03T06:41:02;98414.00;;;32.50
7389;BMP180;3735;50.136;11.062;2022-07-03T06:43:28;98413.00;;;33.50
7389;BMP180;3735;50.136;11.062;2022-07-03T06:45:54;98410.00;;;33.60
7389;BMP180;3735;50.136;11.062;2022-07-03T06:48:20;98411.00;;;33.60
7389;BMP180;3735;50.136;11.062;2022-07-03T06:50:46;98423.00;;;34.10
7389;BMP180;3735;50.136;11.062;2022-07-03T06:53:12;98418.00;;;35.40
7389;BMP180;3735;50.136;11.062;2022-07-03T06:55:38;98417.00;;;35.00
7389;BMP180;3735;50.136;11.062;2022-07-03T06:58:04;98424.00;;;34.60
7389;BMP180;3735;50.136;11.062;2022-07-03T07:00:29;98422.00;;;33.90
7389;BMP180;3735;50.136;11.062;2022-07-03T07:02:55;98410.00;;;33.80
7389;BMP180;3735;50.136;11.062;2022-07-03T07:05:21;98430.00;;;34.10
7389;BMP180;3735;50.136;11.062;2022-07-03T07:07:48;98436.00;;;33.20
7389;BMP180;3735;50.136;11.062;2022-07-03T07:10:14;98426.00;;;32.80
7389;BMP180;3735;50.136;11.062;2022-07-03T07:12:40;98419.00;;;32.90
7389;BMP180;3735;50.136;11.062;2022-07-03T07:15:06;98418.00;;;33.80
7389;BMP180;3735;50.136;11.062;2022-07-03T07:17:32;98415.00;;;34.30
7389;BMP180;3735;50.136;11.062;2022-07-03T07:19:58;98416.00;;;34.90
7389;BMP180;3735;50.136;11.062;2022-07-03T07:22:24;98414.00;;;35.40
7389;BMP180;3735;50.136;11.062;2022-07-03T07:24:51;98417.00;;;35.20
7389;BMP180;3735;50.136;11.062;2022-07-03T07:27:17;98415.00;;;35.70
7389;BMP180;3735;50.136;11.062;2022-07-03T07:29:43;98411.00;;;36.20
7389;BMP180;3735;50.136;11.062;2022-07-03T07:32:09;98419.00;;;35.70
7389;BMP180;3735;50.136;11.062;2022-07-03T07:34:35;98420.00;;;36.00
7389;BMP180;3735;50.136;11.062;2022-07-03T07:37:01;98421.00;;;36.30
7389;BMP180;3735;50.136;11.062;2022-07-03T07:39:27;98426.00;;;35.40
7389;BMP180;3735;50.136;11.062;2022-07-03T07:41:53;98424.00;;;36.30
7389;BMP180;3735;50.136;11.062;2022-07-03T07:44:18;98419.00;;;36.60
7389;BMP180;3735;50.136;11.062;2022-07-03T07:46:44;98417.00;;;36.90
7389;BMP180;3735;50.136;11.062;2022-07-03T07:49:10;98417.00;;;36.20
7389;BMP180;3735;50.136;11.062;2022-07-03T07:51:36;98425.00;;;36.10
7389;BMP180;3735;50.136;11.062;2022-07-03T07:54:01;98413.00;;;36.20
7389;BMP180;3735;50.136;11.062;2022-07-03T07:56:27;98413.00;;;36.30
7389;BMP180;3735;50.136;11.062;2022-07-03T07:58:53;98417.00;;;36.70
7389;BMP180;3735;50.136;11.062;2022-07-03T08:01:19;98416.00;;;36.90
7389;BMP180;3735;50.136;11.062;2022-07-03T08:04:03;98415.00;;;37.80
7389;BMP180;3735;50.136;11.062;2022-07-03T08:06:48;98417.00;;;38.30
7389;BMP180;3735;50.136;11.062;2022-07-03T08:09:14;98414.00;;;37.60
7389;BMP180;3735;50.136;11.062;2022-07-03T08:11:40;98416.00;;;37.30
7389;BMP180;3735;50.136;11.062;2022-07-03T08:14:05;98418.00;;;36.60
7389;BMP180;3735;50.136;11.062;2022-07-03T08:16:34;98415.00;;;36.40
7389;BMP180;3735;50.136;11.062;2022-07-03T08:19:00;98397.00;;;37.60
7389;BMP180;3735;50.136;11.062;2022-07-03T08:21:27;98418.00;;;38.30
7389;BMP180;3735;50.136;11.062;2022-07-03T08:23:53;98414.00;;;37.70
7389;BMP180;3735;50.136;11.062;2022-07-03T08:26:19;98411.00;;;37.70
7389;BMP180;3735;50.136;11.062;2022-07-03T08:28:44;98422.00;;;38.20
7389;BMP180;3735;50.136;11.062;2022-07-03T08:31:10;98421.00;;;38.30
7389;BMP180;3735;50.136;11.062;2022-07-03T08:33:36;98423.00;;;38.00
7389;BMP180;3735;50.136;11.062;2022-07-03T08:36:02;98411.00;;;38.30
7389;BMP180;3735;50.136;11.062;2022-07-03T08:38:32;98411.00;;;37.50
7389;BMP180;3735;50.136;11.062;2022-07-03T08:41:03;98420.00;;;38.50
7389;BMP180;3735;50.136;11.062;2022-07-03T08:43:29;98414.00;;;38.70
7389;BMP180;3735;50.136;11.062;2022-07-03T08:45:58;98412.00;;;38.40
7389;BMP180;3735;50.136;11.062;2022-07-03T08:48:25;98417.00;;;38.20
7389;BMP180;3735;50.136;11.062;2022-07-03T08:50:52;98416.00;;;37.20
7389;BMP180;3735;50.136;11.062;2022-07-03T08:53:18;98420.00;;;37.60
7389;BMP180;3735;50.136;11.062;2022-07-03T08:55:48;98409.00;;;38.30
7389;BMP180;3735;50.136;11.062;2022-07-03T08:58:15;98416.00;;;37.70
7389;BMP180;3735;50.136;11.062;2022-07-03T09:00:42;98415.00;;;35.80
7389;BMP180;3735;50.136;11.062;2022-07-03T09:03:12;98416.00;;;36.80
7389;BMP180;3735;50.136;11.062;2022-07-03T09:05:39;98412.00;;;37.50
7389;BMP180;3735;50.136;11.062;2022-07-03T09:08:09;98417.00;;;36.70
7389;BMP180;3735;50.136;11.062;2022-07-03T09:10:36;98417.00;;;37.50
7389;BMP180;3735;50.136;11.062;2022-07-03T09:13:02;98417.00;;;37.50
7389;BMP180;3735;50.136;11.062;2022-07-03T09:15:28;98412.00;;;37.40
7389;BMP180;3735;50.136;11.062;2022-07-03T09:18:04;98407.00;;;36.20
7389;BMP180;3735;50.136;11.062;2022-07-03T09:20:37;98405.00;;;35.90
7389;BMP180;3735;50.136;11.062;2022-07-03T09:23:18;98404.00;;;37.00
7389;BMP180;3735;50.136;11.062;2022-07-03T09:25:56;98405.00;;;36.40
7389;BMP180;3735;50.136;11.062;2022-07-03T09:31:16;98403.00;;;35.20
7389;BMP180;3735;50.136;11.062;2022-07-03T09:44:44;98400.00;;;36.30
7389;BMP180;3735;50.136;11.062;2022-07-03T09:47:23;98400.00;;;36.30
7389;BMP180;3735;50.136;11.062;2022-07-03T09:52:46;98394.00;;;36.60
7389;BMP180;3735;50.136;11.062;2022-07-03T09:55:17;98391.00;;;36.80
7389;BMP180;3735;50.136;11.062;2022-07-03T09:57:59;98398.00;;;37.30
7389;BMP180;3735;50.136;11.062;2022-07-03T10:00:32;98399.00;;;36.40
7389;BMP180;3735;50.136;11.062;2022-07-03T10:05:40;98387.00;;;36.10
7389;BMP180;3735;50.136;11.062;2022-07-03T10:08:13;98395.00;;;37.10
7389;BMP180;3735;50.136;11.062;2022-07-03T10:10:46;98391.00;;;36.30
7389;BMP180;3735;50.136;11.062;2022-07-03T10:13:14;98392.00;;;36.30
7389;BMP180;3735;50.136;11.062;2022-07-03T10:15:42;98392.00;;;37.00
7389;BMP180;3735;50.136;11.062;2022-07-03T10:18:13;98384.00;;;37.40
7389;BMP180;3735;50.136;11.062;2022-07-03T10:23:10;98389.00;;;37.30
7389;BMP180;3735;50.136;11.062;2022-07-03T10:25:41;98391.00;;;36.50
7389;BMP180;3735;50.136;11.062;2022-07-03T10:28:08;98388.00;;;36.60
7389;BMP180;3735;50.136;11.062;2022-07-03T10:30:36;98392.00;;;36.90
7389;BMP180;3735;50.136;11.062;2022-07-03T10:33:02;98389.00;;;37.10
7389;BMP180;3735;50.136;11.062;2022-07-03T10:35:37;98379.00;;;37.60
7389;BMP180;3735;50.136;11.062;2022-07-03T10:38:12;98379.00;;;36.90
7389;BMP180;3735;50.136;11.062;2022-07-03T10:43:34;98376.00;;;36.10
7389;BMP180;3735;50.136;11.062;2022-07-03T10:46:25;98381.00;;;34.40
7389;BMP180;3735;50.136;11.062;2022-07-03T10:51:30;98391.00;;;36.10
7389;BMP180;3735;50.136;11.062;2022-07-03T11:02:41;98374.00;;;34.80
7389;BMP180;3735;50.136;11.062;2022-07-03T11:05:10;98372.00;;;35.50
7389;BMP180;3735;50.136;11.062;2022-07-03T11:13:12;98372.00;;;35.10
7389;BMP180;3735;50.136;11.062;2022-07-03T11:15:53;98353.00;;;36.90
7389;BMP180;3735;50.136;11.062;2022-07-03T11:18:33;98358.00;;;36.70
7389;BMP180;3735;50.136;11.062;2022-07-03T11:26:22;98351.00;;;35.80
7389;BMP180;3735;50.136;11.062;2022-07-03T11:28:52;98347.00;;;36.40
7389;BMP180;3735;50.136;11.062;2022-07-03T11:31:21;98339.00;;;37.20
7389;BMP180;3735;50.136;11.062;2022-07-03T11:41:41;98344.00;;;37.20
7389;BMP180;3735;50.136;11.062;2022-07-03T11:44:09;98331.00;;;38.00
7389;BMP180;3735;50.136;11.062;2022-07-03T11:46:39;98320.00;;;37.40
7389;BMP180;3735;50.136;11.062;2022-07-03T11:49:10;98334.00;;;37.10
7389;BMP180;3735;50.136;11.062;2022-07-03T11:51:38;98331.00;;;36.20
7389;BMP180;3735;50.136;11.062;2022-07-03T11:54:05;98326.00;;;37.20
7389;BMP180;3735;50.136;11.062;2022-07-03T11:56:32;98324.00;;;37.30
7389;BMP180;3735;50.136;11.062;2022-07-03T11:59:01;98331.00;;;37.60
7389;BMP180;3735;50.136;11.062;2022-07-03T12:01:29;98321.00;;;36.90
7389;BMP180;3735;50.136;11.062;2022-07-03T12:04:19;98320.00;;;35.50
7389;BMP180;3735;50.136;11.062;2022-07-03T12:06:48;98321.00;;;35.60
7389;BMP180;3735;50.136;11.062;2022-07-03T12:12:01;98315.00;;;36.90
7389;BMP180;3735;50.136;11.062;2022-07-03T12:14:48;98320.00;;;38.00
7389;BMP180;3735;50.136;11.062;2022-07-03T12:17:25;98312.00;;;37.80
7389;BMP180;3735;50.136;11.062;2022-07-03T12:20:01;98310.00;;;37.90
7389;BMP180;3735;50.136;11.062;2022-07-03T12:22:36;98310.00;;;37.70
7389;BMP180;3735;50.136;11.062;2022-07-03T12:25:13;98317.00;;;35.80
7389;BMP180;3735;50.136;11.062;2022-07-03T12:27:45;98311.00;;;36.20
7389;BMP180;3735;50.136;11.062;2022-07-03T12:30:19;98308.00;;;35.30
7389;BMP180;3735;50.136;11.062;2022-07-03T12:32:45;98305.00;;;36.20
7389;BMP180;3735;50.136;11.062;2022-07-03T12:35:12;98298.00;;;36.50
7389;BMP180;3735;50.136;11.062;2022-07-03T12:37:40;98293.00;;;36.50
7389;BMP180;3735;50.136;11.062;2022-07-03T12:40:09;98298.00;;;37.00
7389;BMP180;3735;50.136;11.062;2022-07-03T12:42:47;98291.00;;;37.90
7389;BMP180;3735;50.136;11.062;2022-07-03T12:45:17;98301.00;;;37.40
7389;BMP180;3735;50.136;11.062;2022-07-03T12:47:44;98293.00;;;37.40
7389;BMP180;3735;50.136;11.062;2022-07-03T12:50:10;98295.00;;;37.40
7389;BMP180;3735;50.136;11.062;2022-07-03T12:52:53;98285.00;;;38.00
7389;BMP180;3735;50.136;11.062;2022-07-03T12:55:30;98290.00;;;37.60
7389;BMP180;3735;50.136;11.062;2022-07-03T12:58:16;98289.00;;;37.70
7389;BMP180;3735;50.136;11.062;2022-07-03T13:01:01;98275.00;;;38.10
7389;BMP180;3735;50.136;11.062;2022-07-03T13:03:31;98271.00;;;38.90
7389;BMP180;3735;50.136;11.062;2022-07-03T13:05:57;98271.00;;;39.20
7389;BMP180;3735;50.136;11.062;2022-07-03T13:08:23;98270.00;;;39.00
7389;BMP180;3735;50.136;11.062;2022-07-03T13:10:59;98280.00;;;39.00
7389;BMP180;3735;50.136;11.062;2022-07-03T13:13:26;98275.00;;;36.50
7389;BMP180;3735;50.136;11.062;2022-07-03T13:16:01;98270.00;;;36.30
7389;BMP180;3735;50.136;11.062;2022-07-03T13:19:00;98273.00;;;37.40
7389;BMP180;3735;50.136;11.062;2022-07-03T13:21:26;98268.00;;;38.10
7389;BMP180;3735;50.136;11.062;2022-07-03T13:23:53;98259.00;;;38.60
7389;BMP180;3735;50.136;11.062;2022-07-03T13:26:19;98271.00;;;37.40
7389;BMP180;3735;50.136;11.062;2022-07-03T13:28:45;98260.00;;;36.70
7389;BMP180;3735;50.136;11.062;2022-07-03T13:31:10;98266.00;;;36.80
7389;BMP180;3735;50.136;11.062;2022-07-03T13:33:36;98259.00;;;36.40
7389;BMP180;3735;50.136;11.062;2022-07-03T13:36:02;98267.00;;;36.30
7389;BMP180;3735;50.136;11.062;2022-07-03T13:38:28;98264.00;;;35.70
7389;BMP180;3735;50.136;11.062;2022-07-03T13:40:53;98262.00;;;36.80
7389;BMP180;3735;50.136;11.062;2022-07-03T13:43:19;98261.00;;;37.80
7389;BMP180;3735;50.136;11.062;2022-07-03T13:45:45;98262.00;;;37.70
7389;BMP180;3735;50.136;11.062;2022-07-03T13:48:10;98261.00;;;38.20
7389;BMP180;3735;50.136;11.062;2022-07-03T13:50:36;98269.00;;;37.90
7389;BMP180;3735;50.136;11.062;2022-07-03T13:53:02;98268.00;;;36.60
7389;BMP180;3735;50.136;11.062;2022-07-03T13:55:28;98264.00;;;36.70
7389;BMP180;3735;50.136;11.062;2022-07-03T13:57:54;98265.00;;;36.90
7389;BMP180;3735;50.136;11.062;2022-07-03T14:00:20;98260.00;;;36.60
7389;BMP180;3735;50.136;11.062;2022-07-03T14:02:46;98264.00;;;37.40
7389;BMP180;3735;50.136;11.062;2022-07-03T14:05:12;98265.00;;;36.40
7389;BMP180;3735;50.136;11.062;2022-07-03T14:07:37;98255.00;;;37.10
7389;BMP180;3735;50.136;11.062;2022-07-03T14:10:03;98252.00;;;38.00
7389;BMP180;3735;50.136;11.062;2022-07-03T14:12:29;98249.00;;;39.00
7389;BMP180;3735;50.136;11.062;2022-07-03T14:14:55;98251.00;;;38.10
7389;BMP180;3735;50.136;11.062;2022-07-03T14:17:22;98253.00;;;37.40
7389;BMP180;3735;50.136;11.062;2022-07-03T14:19:48;98251.00;;;35.70
7389;BMP180;3735;50.136;11.062;2022-07-03T14:22:14;98254.00;;;36.10
7389;BMP180;3735;50.136;11.062;2022-07-03T14:24:40;98258.00;;;36.60
7389;BMP180;3735;50.136;11.062;2022-07-03T14:27:05;98252.00;;;37.30
7389;BMP180;3735;50.136;11.062;2022-07-03T14:29:50;98248.00;;;36.40
7389;BMP180;3735;50.136;11.062;2022-07-03T14:32:34;98245.00;;;37.70
7389;BMP180;3735;50.136;11.062;2022-07-03T14:35:02;98238.00;;;38.60
7389;BMP180;3735;50.136;11.062;2022-07-03T14:37:29;98237.00;;;38.70
7389;BMP180;3735;50.136;11.062;2022-07-03T14:39:55;98238.00;;;39.10
7389;BMP180;3735;50.136;11.062;2022-07-03T14:42:21;98237.00;;;39.30
7389;BMP180;3735;50.136;11.062;2022-07-03T14:44:47;98230.00;;;39.80
7389;BMP180;3735;50.136;11.062;2022-07-03T14:47:13;98235.00;;;39.70
7389;BMP180;3735;50.136;11.062;2022-07-03T14:49:39;98228.00;;;39.20
7389;BMP180;3735;50.136;11.062;2022-07-03T14:52:06;98232.00;;;38.80
7389;BMP180;3735;50.136;11.062;2022-07-03T14:54:34;98230.00;;;36.30
7389;BMP180;3735;50.136;11.062;2022-07-03T14:57:02;98229.00;;;36.70
7389;BMP180;3735;50.136;11.062;2022-07-03T15:00:01;98227.00;;;37.60
7389;BMP180;3735;50.136;11.062;2022-07-03T15:05:06;98219.00;;;38.30
7389;BMP180;3735;50.136;11.062;2022-07-03T15:07:41;98224.00;;;39.10
7389;BMP180;3735;50.136;11.062;2022-07-03T15:10:13;98216.00;;;38.70
7389;BMP180;3735;50.136;11.062;2022-07-03T15:12:51;98219.00;;;39.00
7389;BMP180;3735;50.136;11.062;2022-07-03T15:15:20;98215.00;;;38.80
7389;BMP180;3735;50.136;11.062;2022-07-03T15:17:51;98204.00;;;38.90
7389;BMP180;3735;50.136;11.062;2022-07-03T15:20:19;98208.00;;;38.10
7389;BMP180;3735;50.136;11.062;2022-07-03T15:22:47;98218.00;;;37.80
7389;BMP180;3735;50.136;11.062;2022-07-03T15:25:17;98219.00;;;37.20
7389;BMP180;3735;50.136;11.062;2022-07-03T15:27:50;98212.00;;;36.50
7389;BMP180;3735;50.136;11.062;2022-07-03T15:30:17;98206.00;;;35.50
7389;BMP180;3735;50.136;11.062;2022-07-03T15:32:47;98198.00;;;35.40
7389;BMP180;3735;50.136;11.062;2022-07-03T15:35:14;98205.00;;;34.20
7389;BMP180;3735;50.136;11.062;2022-07-03T15:38:13;98197.00;;;33.00
7389;BMP180;3735;50.136;11.062;2022-07-03T15:40:53;98198.00;;;33.00
7389;BMP180;3735;50.136;11.062;2022-07-03T15:49:24;98191.00;;;34.80
7389;BMP180;3735;50.136;11.062;2022-07-03T15:52:21;98185.00;;;34.70
7389;BMP180;3735;50.136;11.062;2022-07-03T15:54:56;98187.00;;;33.60
7389;BMP180;3735;50.136;11.062;2022-07-03T15:57:52;98173.00;;;32.80
7389;BMP180;3735;50.136;11.062;2022-07-03T16:00:22;98180.00;;;32.60
7389;BMP180;3735;50.136;11.062;2022-07-03T16:03:27;98177.00;;;32.00